createdAt,value
2019-05-18T00:01:24.932Z,100427.47
2019-05-18T00:03:53.446Z,100431.97
2019-05-18T00:06:22.132Z,100430.41
2019-05-18T00:08:50.704Z,100440.98
2019-05-18T00:11:19.233Z,100439.30
2019-05-18T00:13:47.834Z,100442.29
2019-05-18T00:16:16.313Z,100435.26
2019-05-18T00:18:44.903Z,100434.42
2019-05-18T00:21:13.522Z,100438.73
2019-05-18T00:23:42.893Z,100436.55
2019-05-18T00:26:11.515Z,100428.83
2019-05-18T00:28:42.589Z,100433.20
2019-05-18T00:31:11.234Z,100434.86
2019-05-18T00:33:39.785Z,100428.86
2019-05-18T00:36:08.405Z,100433.92
2019-05-18T00:38:36.930Z,100432.40
2019-05-18T00:41:05.540Z,100433.27
2019-05-18T00:43:34.080Z,100432.11
2019-05-18T00:46:02.697Z,100428.86
2019-05-18T00:48:31.258Z,100432.38
2019-05-18T00:50:59.781Z,100433.44
2019-05-18T00:53:28.399Z,100431.17
2019-05-18T00:55:56.971Z,100432.20
2019-05-18T00:58:26.114Z,100434.70
2019-05-18T01:00:54.646Z,100430.91
2019-05-18T01:03:23.272Z,100427.92
2019-05-18T01:05:51.871Z,100433.27
2019-05-18T01:08:20.413Z,100423.68
2019-05-18T01:10:49.053Z,100426.98
2019-05-18T01:13:17.640Z,100424.63
2019-05-18T01:15:46.314Z,100430.05
2019-05-18T01:18:14.922Z,100429.26
2019-05-18T01:20:43.549Z,100431.98
2019-05-18T01:23:12.077Z,100428.23
2019-05-18T01:25:40.674Z,100436.97
2019-05-18T01:28:09.294Z,100429.25
2019-05-18T01:30:38.330Z,100427.50
2019-05-18T01:33:06.864Z,100416.26
2019-05-18T01:35:35.457Z,100410.15
2019-05-18T01:38:04.185Z,100409.26
2019-05-18T01:40:32.698Z,100401.38
2019-05-18T01:43:01.324Z,100401.68
2019-05-18T01:45:29.862Z,100402.27
2019-05-18T01:48:12.615Z,100404.56
2019-05-18T01:50:28.625Z,100397.42
2019-05-18T01:52:57.255Z,100398.10
2019-05-18T01:55:25.769Z,100399.03
2019-05-18T01:57:54.444Z,100392.46
2019-05-18T02:00:23.359Z,100395.66
2019-05-18T02:02:51.896Z,100396.94
2019-05-18T02:05:20.462Z,100401.70
2019-05-18T02:07:49.029Z,100407.84
2019-05-18T02:10:17.944Z,100416.55
2019-05-18T02:12:46.517Z,100414.36
2019-05-18T02:15:15.795Z,100423.11
2019-05-18T02:17:44.272Z,100416.08
2019-05-18T02:20:13.066Z,100414.20
2019-05-18T02:22:41.509Z,100411.96
2019-05-18T02:25:10.322Z,100408.67
2019-05-18T02:27:38.838Z,100409.64
2019-05-18T02:30:08.696Z,100414.80
2019-05-18T02:32:37.198Z,100408.66
2019-05-18T02:35:07.122Z,100412.30
2019-05-18T02:37:35.720Z,100406.48
2019-05-18T02:40:06.366Z,100407.03
2019-05-18T02:42:35.067Z,100394.41
2019-05-18T02:45:04.724Z,100394.41
2019-05-18T02:47:33.282Z,100404.16
2019-05-18T02:50:01.820Z,100393.77
2019-05-18T02:52:30.369Z,100393.03
2019-05-18T02:54:58.812Z,100389.38
2019-05-18T02:57:27.447Z,100392.44
2019-05-18T02:59:56.094Z,100386.88
2019-05-18T03:02:24.583Z,100382.03
2019-05-18T03:04:53.140Z,100386.95
2019-05-18T03:07:21.586Z,100386.03
2019-05-18T03:09:50.310Z,100380.31
2019-05-18T03:12:18.907Z,100383.55
2019-05-18T03:14:47.543Z,100382.33
2019-05-18T03:17:16.145Z,100383.64
2019-05-18T03:19:44.806Z,100380.41
2019-05-18T03:22:13.343Z,100377.96
2019-05-18T03:24:41.855Z,100380.31
2019-05-18T03:27:10.417Z,100380.50
2019-05-18T03:29:38.975Z,100381.52
2019-05-18T03:32:07.517Z,100393.98
2019-05-18T03:34:36.069Z,100388.84
2019-05-18T03:37:04.670Z,100390.34
2019-05-18T03:39:33.326Z,100387.95
2019-05-18T03:42:01.934Z,100391.08
2019-05-18T03:44:30.583Z,100391.30
2019-05-18T03:46:59.095Z,100390.34
2019-05-18T03:49:27.890Z,100390.80
2019-05-18T03:51:56.652Z,100387.31
2019-05-18T03:54:25.360Z,100381.50
2019-05-18T03:56:53.867Z,100392.02
2019-05-18T03:59:22.353Z,100385.91
2019-05-18T04:01:50.891Z,100388.38
2019-05-18T04:04:19.433Z,100390.95
2019-05-18T04:06:48.034Z,100386.67
2019-05-18T04:09:16.668Z,100386.36
2019-05-18T04:11:45.386Z,100384.57
2019-05-18T04:14:13.905Z,100391.19
2019-05-18T04:16:42.392Z,100389.16
2019-05-18T04:19:10.977Z,100389.95
2019-05-18T04:21:39.534Z,100381.50
2019-05-18T04:24:08.045Z,100375.00
2019-05-18T04:26:36.781Z,100382.06
2019-05-18T04:29:05.683Z,100386.97
2019-05-18T04:31:34.279Z,100385.58
2019-05-18T04:34:02.871Z,100386.83
2019-05-18T04:36:31.477Z,100386.45
2019-05-18T04:38:59.945Z,100384.11
2019-05-18T04:41:28.457Z,100380.70
2019-05-18T04:43:57.072Z,100381.58
2019-05-18T04:46:25.631Z,100381.09
2019-05-18T04:48:54.267Z,100384.56
2019-05-18T04:51:22.781Z,100390.33
2019-05-18T04:53:51.269Z,100395.38
2019-05-18T04:56:19.849Z,100391.44
2019-05-18T04:58:48.341Z,100395.67
2019-05-18T05:01:16.965Z,100385.31
2019-05-18T05:03:45.895Z,100390.30
2019-05-18T05:06:14.459Z,100389.91
2019-05-18T05:08:43.067Z,100394.55
2019-05-18T05:11:11.629Z,100394.80
2019-05-18T05:13:40.113Z,100392.73
2019-05-18T05:16:08.606Z,100396.84
2019-05-18T05:18:37.102Z,100400.67
2019-05-18T05:21:07.187Z,100403.63
2019-05-18T05:23:35.784Z,100402.48
2019-05-18T05:26:04.433Z,100403.94
2019-05-18T05:28:33.043Z,100403.69
2019-05-18T05:31:01.585Z,100405.09
2019-05-18T05:33:30.082Z,100405.09
2019-05-18T05:35:58.705Z,100401.66
2019-05-18T05:38:27.222Z,100400.31
2019-05-18T05:40:55.813Z,100400.09
2019-05-18T05:43:24.387Z,100398.86
2019-05-18T05:45:53.136Z,100398.95
2019-05-18T05:48:21.742Z,100392.64
2019-05-18T05:50:50.202Z,100397.19
2019-05-18T05:53:18.823Z,100397.50
2019-05-18T05:55:47.342Z,100394.62
2019-05-18T05:58:16.585Z,100398.33
2019-05-18T06:00:45.284Z,100399.16
2019-05-18T06:03:13.814Z,100395.78
2019-05-18T06:05:42.438Z,100391.34
2019-05-18T06:08:10.942Z,100390.89
2019-05-18T06:10:39.561Z,100393.41
2019-05-18T06:13:08.131Z,100398.05
2019-05-18T06:15:36.614Z,100401.42
2019-05-18T06:18:05.147Z,100411.21
2019-05-18T06:20:33.595Z,100411.21
2019-05-18T06:23:02.140Z,100412.14
2019-05-18T06:25:34.209Z,100412.58
2019-05-18T06:28:00.927Z,100415.08
2019-05-18T06:30:29.387Z,100409.47
2019-05-18T06:32:57.932Z,100422.17
2019-05-18T06:35:26.523Z,100422.73
2019-05-18T06:37:55.087Z,100424.67
2019-05-18T06:40:23.620Z,100423.68
2019-05-18T06:42:52.543Z,100428.43
2019-05-18T06:45:21.251Z,100431.91
2019-05-18T06:47:49.787Z,100425.64
2019-05-18T06:50:21.386Z,100426.98
2019-05-18T06:52:49.903Z,100434.27
2019-05-18T06:55:18.605Z,100430.09
2019-05-18T06:57:47.795Z,100437.37
2019-05-18T07:00:18.976Z,100442.00
2019-05-18T07:02:47.598Z,100430.61
2019-05-18T07:05:16.197Z,100430.66
2019-05-18T07:07:44.703Z,100435.50
2019-05-18T07:10:13.650Z,100423.89
2019-05-18T07:12:42.186Z,100424.89
2019-05-18T07:15:12.262Z,100424.09
2019-05-18T07:17:40.795Z,100428.95
2019-05-18T07:20:09.827Z,100425.63
2019-05-18T07:22:38.355Z,100429.70
2019-05-18T07:25:08.498Z,100433.42
2019-05-18T07:27:37.198Z,100431.90
2019-05-18T07:30:08.102Z,100437.09
2019-05-18T07:32:36.892Z,100434.23
2019-05-18T07:35:06.677Z,100434.53
2019-05-18T07:37:35.831Z,100430.00
2019-05-18T07:40:08.780Z,100429.31
2019-05-18T07:42:37.386Z,100427.27
2019-05-18T07:45:10.436Z,100426.70
2019-05-18T07:47:39.069Z,100429.87
2019-05-18T07:50:08.096Z,100429.87
2019-05-18T07:52:36.617Z,100431.48
2019-05-18T07:55:06.777Z,100429.59
2019-05-18T07:57:35.401Z,100432.17
2019-05-18T08:00:05.229Z,100429.22
2019-05-18T08:02:33.727Z,100430.36
2019-05-18T08:05:02.325Z,100431.20
2019-05-18T08:07:30.817Z,100432.95
2019-05-18T08:09:59.425Z,100433.80
2019-05-18T08:12:27.945Z,100430.73
2019-05-18T08:14:56.662Z,100427.05
2019-05-18T08:17:25.289Z,100421.13
2019-05-18T08:19:53.853Z,100424.36
2019-05-18T08:22:22.369Z,100420.83
2019-05-18T08:24:50.921Z,100419.46
2019-05-18T08:27:19.571Z,100419.27
2019-05-18T08:29:48.297Z,100426.81
2019-05-18T08:32:16.691Z,100431.80
2019-05-18T08:34:45.344Z,100434.57
2019-05-18T08:37:13.862Z,100427.67
2019-05-18T08:39:42.474Z,100430.63
2019-05-18T08:42:10.953Z,100428.40
2019-05-18T08:44:40.941Z,100431.50
2019-05-18T08:47:09.468Z,100429.80
2019-05-18T08:49:38.052Z,100424.27
2019-05-18T08:52:08.618Z,100420.66
2019-05-18T08:54:36.861Z,100415.75
2019-05-18T08:57:05.420Z,100426.02
2019-05-18T08:59:33.946Z,100427.59
2019-05-18T09:02:02.537Z,100424.43
2019-05-18T09:04:31.219Z,100428.45
2019-05-18T09:06:59.869Z,100429.98
2019-05-18T09:09:28.465Z,100424.20
2019-05-18T09:11:57.084Z,100428.38
2019-05-18T09:14:25.655Z,100424.02
2019-05-18T09:16:54.214Z,100418.32
2019-05-18T09:19:22.757Z,100422.52
2019-05-18T09:21:51.393Z,100424.88
2019-05-18T09:24:19.910Z,100421.30
2019-05-18T09:26:49.204Z,100414.81
2019-05-18T09:29:17.666Z,100416.98
2019-05-18T09:31:46.441Z,100421.29
2019-05-18T09:34:14.999Z,100415.76
2019-05-18T09:36:43.618Z,100422.09
2019-05-18T09:39:12.177Z,100425.62
2019-05-18T09:41:40.889Z,100422.45
2019-05-18T09:44:09.473Z,100422.98
2019-05-18T09:46:38.069Z,100421.80
2019-05-18T09:49:07.069Z,100430.84
2019-05-18T09:51:36.094Z,100432.95
2019-05-18T09:54:04.714Z,100426.81
2019-05-18T09:56:33.362Z,100423.20
2019-05-18T09:59:02.162Z,100425.26
2019-05-18T10:01:30.742Z,100415.27
2019-05-18T10:03:59.482Z,100410.12
2019-05-18T10:06:28.079Z,100420.52
2019-05-18T10:08:57.434Z,100415.06
2019-05-18T10:11:26.080Z,100407.58
2019-05-18T10:13:54.656Z,100405.71
2019-05-18T10:16:23.701Z,100405.41
2019-05-18T10:18:52.412Z,100404.62
2019-05-18T10:21:21.026Z,100414.57
2019-05-18T10:23:49.526Z,100414.22
2019-05-18T10:26:18.178Z,100406.84
2019-05-18T10:28:46.917Z,100404.55
2019-05-18T10:31:15.582Z,100406.29
2019-05-18T10:33:44.262Z,100394.94
2019-05-18T10:36:12.923Z,100391.92
2019-05-18T10:38:41.429Z,100391.50
2019-05-18T10:41:10.104Z,100388.47
2019-05-18T10:43:38.617Z,100385.72
2019-05-18T10:46:07.210Z,100386.77
2019-05-18T10:48:35.840Z,100391.14
2019-05-18T10:51:05.710Z,100387.33
2019-05-18T10:53:34.331Z,100394.00
2019-05-18T10:56:03.072Z,100391.97
2019-05-18T10:58:33.685Z,100391.12
2019-05-18T11:01:02.325Z,100392.58
2019-05-18T11:03:30.974Z,100386.79
2019-05-18T11:05:59.548Z,100387.13
2019-05-18T11:08:28.071Z,100377.27
2019-05-18T11:10:56.633Z,100381.96
2019-05-18T11:13:25.200Z,100378.14
2019-05-18T11:15:54.443Z,100378.45
2019-05-18T11:18:23.050Z,100380.65
2019-05-18T11:20:51.669Z,100383.23
2019-05-18T11:23:20.283Z,100383.72
2019-05-18T11:25:48.884Z,100379.95
2019-05-18T11:28:17.447Z,100375.20
2019-05-18T11:30:46.158Z,100376.33
2019-05-18T11:33:14.742Z,100373.90
2019-05-18T11:35:43.355Z,100365.67
2019-05-18T11:38:11.989Z,100369.07
2019-05-18T11:40:40.627Z,100369.98
2019-05-18T11:43:09.212Z,100362.11
2019-05-18T11:45:39.460Z,100364.12
2019-05-18T11:48:08.021Z,100364.77
2019-05-18T11:50:36.617Z,100370.19
2019-05-18T11:53:05.242Z,100365.25
2019-05-18T11:55:33.881Z,100355.66
2019-05-18T11:58:02.504Z,100358.78
2019-05-18T12:00:31.166Z,100357.72
2019-05-18T12:02:59.741Z,100359.77
2019-05-18T12:05:28.261Z,100355.38
2019-05-18T12:07:56.874Z,100357.31
2019-05-18T12:10:27.441Z,100352.77
2019-05-18T12:12:56.060Z,100350.02
2019-05-18T12:15:25.459Z,100341.74
2019-05-18T12:17:54.047Z,100337.80
2019-05-18T12:20:22.728Z,100353.98
2019-05-18T12:22:51.278Z,100353.28
2019-05-18T12:25:19.971Z,100353.18
2019-05-18T12:27:48.637Z,100351.66
2019-05-18T12:30:17.988Z,100350.83
2019-05-18T12:32:46.620Z,100350.59
2019-05-18T12:35:16.847Z,100355.63
2019-05-18T12:37:45.368Z,100352.47
2019-05-18T12:40:16.907Z,100360.17
2019-05-18T12:42:45.569Z,100353.30
2019-05-18T12:45:16.261Z,100352.16
2019-05-18T12:47:44.780Z,100356.74
2019-05-18T12:50:14.747Z,100349.11
2019-05-18T12:52:43.283Z,100344.59
2019-05-18T12:55:12.456Z,100343.56
2019-05-18T12:57:41.109Z,100343.59
2019-05-18T13:00:12.296Z,100342.84
2019-05-18T13:02:40.876Z,100339.28
2019-05-18T13:05:09.875Z,100337.80
2019-05-18T13:07:38.500Z,100331.82
2019-05-18T13:10:09.840Z,100334.40
2019-05-18T13:12:38.637Z,100333.70
2019-05-18T13:15:09.263Z,100330.55
2019-05-18T13:17:37.907Z,100331.11
2019-05-18T13:20:08.430Z,100328.87
2019-05-18T13:22:37.048Z,100330.44
2019-05-18T13:25:06.749Z,100327.53
2019-05-18T13:27:39.547Z,100318.00
2019-05-18T13:30:11.057Z,100325.14
2019-05-18T13:32:39.767Z,100324.13
2019-05-18T13:35:09.685Z,100323.08
2019-05-18T13:37:38.205Z,100312.11
2019-05-18T13:40:08.481Z,100319.36
2019-05-18T13:42:37.142Z,100318.94
2019-05-18T13:45:08.101Z,100315.11
2019-05-18T13:47:36.721Z,100310.39
2019-05-18T13:50:06.149Z,100306.73
2019-05-18T13:52:34.769Z,100315.03
2019-05-18T13:55:05.168Z,100303.94
2019-05-18T13:57:33.977Z,100301.00
2019-05-18T14:00:02.582Z,100301.19
2019-05-18T14:02:31.186Z,100301.00
2019-05-18T14:04:59.785Z,100301.00
2019-05-18T14:07:28.505Z,100297.86
2019-05-18T14:09:57.096Z,100293.11
2019-05-18T14:12:25.715Z,100295.00
2019-05-18T14:14:54.321Z,100288.77
2019-05-18T14:17:22.779Z,100284.97
2019-05-18T14:19:51.414Z,100292.13
2019-05-18T14:22:20.040Z,100291.44
2019-05-18T14:24:48.578Z,100296.86
2019-05-18T14:27:17.160Z,100278.95
2019-05-18T14:29:45.791Z,100301.19
2019-05-18T14:32:14.308Z,100300.94
2019-05-18T14:34:42.924Z,100289.88
2019-05-18T14:37:11.624Z,100301.39
2019-05-18T14:39:40.247Z,100301.05
2019-05-18T14:42:08.850Z,100301.30
2019-05-18T14:44:37.394Z,100294.48
2019-05-18T14:47:06.049Z,100301.91
2019-05-18T14:49:34.606Z,100296.77
2019-05-18T14:52:03.211Z,100299.16
2019-05-18T14:54:31.818Z,100298.61
2019-05-18T14:57:00.406Z,100299.42
2019-05-18T14:59:28.999Z,100303.91
2019-05-18T15:01:57.723Z,100301.45
2019-05-18T15:04:26.322Z,100295.78
2019-05-18T15:06:54.840Z,100293.03
2019-05-18T15:09:23.374Z,100294.27
2019-05-18T15:11:52.056Z,100295.41
2019-05-18T15:14:20.680Z,100290.18
2019-05-18T15:16:49.300Z,100292.70
2019-05-18T15:19:17.978Z,100288.43
2019-05-18T15:21:46.604Z,100291.88
2019-05-18T15:24:15.228Z,100292.75
2019-05-18T15:26:43.835Z,100294.00
2019-05-18T15:29:12.420Z,100305.48
2019-05-18T15:31:41.040Z,100300.66
2019-05-18T15:34:09.648Z,100313.17
2019-05-18T15:36:38.269Z,100319.73
2019-05-18T15:39:07.516Z,100326.16
2019-05-18T15:41:36.134Z,100338.73
2019-05-18T15:44:05.018Z,100356.18
2019-05-18T15:46:33.638Z,100371.08
2019-05-18T15:49:02.229Z,100368.97
2019-05-18T15:51:30.831Z,100373.22
2019-05-18T15:53:59.435Z,100380.73
2019-05-18T15:56:28.269Z,100392.14
2019-05-18T15:58:56.859Z,100392.11
2019-05-18T16:01:25.484Z,100392.64
2019-05-18T16:03:54.886Z,100392.64
2019-05-18T16:06:23.638Z,100391.21
2019-05-18T16:08:52.261Z,100391.92
2019-05-18T16:11:20.788Z,100394.25
2019-05-18T16:13:49.324Z,100377.33
2019-05-18T16:16:17.981Z,100385.69
2019-05-18T16:18:46.639Z,100386.78
2019-05-18T16:21:15.221Z,100386.52
2019-05-18T16:23:43.858Z,100391.09
2019-05-18T16:26:21.173Z,100392.22
2019-05-18T16:28:42.737Z,100389.81
2019-05-18T16:31:11.453Z,100380.87
2019-05-18T16:33:40.054Z,100380.02
2019-05-18T16:36:08.666Z,100384.27
2019-05-18T16:38:37.249Z,100385.84
2019-05-18T16:41:24.733Z,100387.80
2019-05-18T16:43:53.315Z,100385.77
2019-05-18T16:46:21.903Z,100386.50
2019-05-18T16:48:50.599Z,100389.58
2019-05-18T16:51:19.258Z,100396.52
2019-05-18T16:53:50.160Z,100402.86
2019-05-18T16:56:18.244Z,100415.97
2019-05-18T16:58:46.824Z,100415.97
2019-05-18T17:01:15.334Z,100414.94
2019-05-18T17:03:43.955Z,100417.92
2019-05-18T17:06:12.643Z,100420.23
2019-05-18T17:08:41.277Z,100417.01
2019-05-18T17:11:09.785Z,100416.80
2019-05-18T17:13:38.427Z,100415.52
2019-05-18T17:16:07.079Z,100410.86
2019-05-18T17:18:35.703Z,100407.73
2019-05-18T17:21:04.694Z,100409.09
2019-05-18T17:23:33.253Z,100413.09
2019-05-18T17:26:01.844Z,100408.00
2019-05-18T17:28:30.331Z,100409.53
2019-05-18T17:30:59.330Z,100406.22
2019-05-18T17:33:27.922Z,100411.71
2019-05-18T17:36:00.290Z,100414.39
2019-05-18T17:38:26.838Z,100416.79
2019-05-18T17:40:55.540Z,100410.08
2019-05-18T17:43:24.150Z,100409.50
2019-05-18T17:45:52.795Z,100407.89
2019-05-18T17:48:21.410Z,100403.98
2019-05-18T17:50:49.975Z,100403.92
2019-05-18T17:53:18.627Z,100409.80
2019-05-18T17:55:47.228Z,100411.50
2019-05-18T17:58:15.820Z,100422.28
2019-05-18T18:00:44.709Z,100415.63
2019-05-18T18:03:13.222Z,100411.66
2019-05-18T18:05:41.852Z,100414.66
2019-05-18T18:08:10.427Z,100414.20
2019-05-18T18:10:39.135Z,100419.91
2019-05-18T18:13:09.575Z,100420.13
2019-05-18T18:15:38.310Z,100421.28
2019-05-18T18:18:06.909Z,100418.61
2019-05-18T18:20:35.521Z,100427.92
2019-05-18T18:23:04.148Z,100426.63
2019-05-18T18:25:32.661Z,100429.50
2019-05-18T18:28:01.302Z,100429.50
2019-05-18T18:30:29.820Z,100430.39
2019-05-18T18:32:58.444Z,100433.03
2019-05-18T18:35:28.549Z,100432.95
2019-05-18T18:37:57.185Z,100434.41
2019-05-18T18:40:25.800Z,100435.33
2019-05-18T18:42:54.414Z,100437.14
2019-05-18T18:45:22.996Z,100439.80
2019-05-18T18:47:51.602Z,100441.06
2019-05-18T18:50:20.239Z,100445.81
2019-05-18T18:52:48.851Z,100449.25
2019-05-18T18:55:17.447Z,100444.52
2019-05-18T18:57:46.021Z,100447.00
2019-05-18T19:00:16.025Z,100446.73
2019-05-18T19:02:44.743Z,100446.02
2019-05-18T19:05:13.733Z,100442.77
2019-05-18T19:07:42.378Z,100447.14
2019-05-18T19:10:11.350Z,100443.40
2019-05-18T19:12:39.839Z,100444.14
2019-05-18T19:15:10.292Z,100448.37
2019-05-18T19:17:38.945Z,100443.36
2019-05-18T19:20:08.083Z,100447.81
2019-05-18T19:22:36.624Z,100437.13
2019-05-18T19:25:05.878Z,100441.13
2019-05-18T19:27:34.515Z,100446.63
2019-05-18T19:30:03.875Z,100445.45
2019-05-18T19:32:32.527Z,100455.06
2019-05-18T19:35:01.703Z,100459.95
2019-05-18T19:37:30.316Z,100463.98
2019-05-18T19:39:58.883Z,100461.34
2019-05-18T19:42:27.526Z,100462.09
2019-05-18T19:44:56.111Z,100466.31
2019-05-18T19:47:24.629Z,100464.28
2019-05-18T19:49:53.151Z,100468.30
2019-05-18T19:52:21.759Z,100463.11
2019-05-18T19:54:50.485Z,100466.52
2019-05-18T19:57:19.148Z,100462.92
2019-05-18T19:59:47.795Z,100461.47
2019-05-18T20:02:18.469Z,100471.94
2019-05-18T20:05:05.870Z,100466.45
2019-05-18T20:07:17.060Z,100466.63
2019-05-18T20:09:45.712Z,100471.28
2019-05-18T20:12:14.306Z,100475.72
2019-05-18T20:14:42.820Z,100463.46
2019-05-18T20:17:11.485Z,100467.86
2019-05-18T20:19:40.052Z,100462.77
2019-05-18T20:22:08.724Z,100464.19
2019-05-18T20:24:37.254Z,100457.83
2019-05-18T20:27:05.865Z,100457.35
2019-05-18T20:29:34.434Z,100463.32
2019-05-18T20:32:03.034Z,100461.39
2019-05-18T20:34:32.672Z,100457.19
2019-05-18T20:37:01.311Z,100453.94
2019-05-18T20:39:29.881Z,100455.89
2019-05-18T20:41:58.433Z,100459.36
2019-05-18T20:44:26.912Z,100460.63
2019-05-18T20:46:55.615Z,100458.84
2019-05-18T20:49:24.227Z,100465.02
2019-05-18T20:51:52.881Z,100469.48
2019-05-18T20:54:21.588Z,100462.58
2019-05-18T20:56:50.294Z,100467.16
2019-05-18T20:59:18.752Z,100465.31
2019-05-18T21:01:47.388Z,100463.22
2019-05-18T21:04:16.007Z,100466.22
2019-05-18T21:06:45.615Z,100464.06
2019-05-18T21:09:14.434Z,100463.70
2019-05-18T21:11:42.998Z,100456.59
2019-05-18T21:14:11.583Z,100460.00
2019-05-18T21:16:40.190Z,100448.53
2019-05-18T21:19:08.730Z,100450.47
2019-05-18T21:21:37.272Z,100450.41
2019-05-18T21:24:05.993Z,100458.13
2019-05-18T21:26:34.674Z,100464.18
2019-05-18T21:29:04.028Z,100468.50
2019-05-18T21:31:33.109Z,100469.52
2019-05-18T21:34:01.629Z,100469.88
2019-05-18T21:36:30.132Z,100473.92
2019-05-18T21:38:58.694Z,100476.86
2019-05-18T21:41:27.327Z,100478.02
2019-05-18T21:43:55.919Z,100471.53
2019-05-18T21:46:24.543Z,100468.95
2019-05-18T21:48:53.146Z,100470.66
2019-05-18T21:51:21.719Z,100466.06
2019-05-18T21:53:50.373Z,100469.08
2019-05-18T21:56:18.873Z,100476.23
2019-05-18T21:58:47.402Z,100476.06
2019-05-18T22:01:16.042Z,100481.13
2019-05-18T22:03:48.034Z,100480.48
2019-05-18T22:06:14.997Z,100486.73
2019-05-18T22:08:44.407Z,100484.78
2019-05-18T22:11:13.085Z,100485.23
2019-05-18T22:13:41.706Z,100490.41
2019-05-18T22:16:10.264Z,100492.45
2019-05-18T22:18:38.803Z,100498.48
2019-05-18T22:21:07.545Z,100506.27
2019-05-18T22:23:35.948Z,100503.89
2019-05-18T22:26:04.578Z,100501.97
2019-05-18T22:28:33.849Z,100498.77
2019-05-18T22:31:02.463Z,100496.03
2019-05-18T22:33:30.922Z,100492.94
2019-05-18T22:35:59.473Z,100500.20
2019-05-18T22:38:28.103Z,100491.22
2019-05-18T22:40:56.628Z,100490.91
2019-05-18T22:43:25.172Z,100488.47
2019-05-18T22:45:53.856Z,100495.69
2019-05-18T22:48:22.517Z,100495.84
2019-05-18T22:50:51.126Z,100493.89
2019-05-18T22:53:19.747Z,100492.73
2019-05-18T22:55:48.339Z,100480.41
2019-05-18T22:58:16.779Z,100474.35
2019-05-18T23:00:45.417Z,100469.17
2019-05-18T23:03:14.009Z,100463.14
2019-05-18T23:05:42.594Z,100463.77
2019-05-18T23:08:11.269Z,100470.75
2019-05-18T23:10:39.921Z,100465.33
2019-05-18T23:13:08.440Z,100475.44
2019-05-18T23:15:37.100Z,100478.89
2019-05-18T23:18:05.785Z,100475.21
2019-05-18T23:20:34.537Z,100475.84
2019-05-18T23:23:03.271Z,100475.28
2019-05-18T23:25:31.889Z,100472.97
2019-05-18T23:28:00.453Z,100472.70
2019-05-18T23:30:28.978Z,100470.47
2019-05-18T23:32:57.622Z,100467.08
2019-05-18T23:35:26.189Z,100468.78
2019-05-18T23:37:54.750Z,100477.73
2019-05-18T23:40:23.360Z,100470.73
2019-05-18T23:42:51.922Z,100467.48
2019-05-18T23:45:21.434Z,100461.27
2019-05-18T23:47:50.042Z,100461.27
2019-05-18T23:50:18.649Z,100469.12
2019-05-18T23:52:47.369Z,100464.00
2019-05-18T23:55:16.008Z,100469.02
2019-05-18T23:57:44.510Z,100465.33
